Time;durP1;ratioP1;P1;durP2;ratioP2;P2;SDS_P1;SDS_P2;PMS_P1;PMS_P2;Temp;Humidity;BMP_temperature;BMP_pressure;BME280_temperature;BME280_humidity;BME280_pressure;Samples;Min_cycle;Max_cycle;Signal;HPM_P1;HPM_P2
2024/01/12 00:01:45;;;;;;;45.72;30.58;;;;;;;5.44;100.00;99726.53;5092689;28;20028;-46
2024/01/12 00:04:11;;;;;;;45.70;30.85;;;;;;;5.28;100.00;99723.72;5093957;28;20024;-46
2024/01/12 00:06:38;;;;;;;40.03;29.88;;;;;;;5.18;100.00;99726.31;5075869;28;20040;-46
2024/01/12 00:09:04;;;;;;;42.88;29.92;;;;;;;5.16;100.00;99723.84;5093865;28;20035;-46
2024/01/12 00:11:30;;;;;;;50.38;38.17;;;;;;;5.14;100.00;99724.97;5093823;28;20020;-46
2024/01/12 00:13:56;;;;;;;58.88;44.60;;;;;;;5.12;100.00;99724.28;5092532;28;20038;-46
2024/01/12 00:16:21;;;;;;;60.90;45.55;;;;;;;5.18;100.00;99718.53;5093694;28;20028;-45
2024/01/12 00:18:47;;;;;;;44.83;36.30;;;;;;;5.36;100.00;99723.81;5092434;28;20027;-45
2024/01/12 00:21:16;;;;;;;62.78;49.42;;;;;;;5.48;100.00;99724.47;5092377;28;20035;-46
2024/01/12 00:23:42;;;;;;;55.05;39.53;;;;;;;5.56;100.00;99722.78;5093562;28;20062;-46
2024/01/12 00:26:07;;;;;;;58.15;44.72;;;;;;;5.63;100.00;99723.03;5093541;28;20647;-46
2024/01/12 00:28:33;;;;;;;50.58;37.20;;;;;;;5.66;100.00;99720.16;5093502;28;20020;-46
2024/01/12 00:30:59;;;;;;;42.10;31.42;;;;;;;5.71;100.00;99725.75;5093381;28;20028;-46
2024/01/12 00:33:25;;;;;;;44.13;30.80;;;;;;;5.76;100.00;99714.94;5093384;28;20024;-46
2024/01/12 00:35:50;;;;;;;44.42;30.08;;;;;;;5.69;100.00;99719.88;5074936;28;20654;-46
2024/01/12 00:38:16;;;;;;;47.67;30.73;;;;;;;5.51;100.00;99718.97;5093244;28;20016;-46
2024/01/12 00:40:42;;;;;;;39.47;29.88;;;;;;;5.44;100.00;99712.72;5092273;28;20106;-45
2024/01/12 00:43:08;;;;;;;42.40;30.63;;;;;;;5.45;100.00;99711.72;5091930;28;20551;-46
2024/01/12 00:45:34;;;;;;;39.65;30.20;;;;;;;5.48;100.00;99714.06;5093131;28;20247;-46
2024/01/12 00:48:00;;;;;;;42.42;27.85;;;;;;;5.58;100.00;99720.06;5093344;28;20386;-46
2024/01/12 00:50:26;;;;;;;44.35;30.90;;;;;;;5.55;100.00;99717.72;5093306;28;20016;-46
2024/01/12 00:52:52;;;;;;;41.20;28.50;;;;;;;5.48;100.00;99714.88;5093005;28;20073;-46
2024/01/12 00:55:18;;;;;;;39.20;28.13;;;;;;;5.49;100.00;99708.69;5092374;28;20023;-46
2024/01/12 00:57:44;;;;;;;43.70;31.67;;;;;;;5.42;100.00;99719.84;5091299;28;20516;-48
2024/01/12 01:00:10;;;;;;;41.40;30.90;;;;;;;5.13;100.00;99718.09;5091517;28;20016;-48
2024/01/12 01:02:36;;;;;;;40.05;29.33;;;;;;;5.03;100.00;99723.34;5091538;28;20024;-48
2024/01/12 01:05:02;;;;;;;42.35;29.08;;;;;;;5.20;100.00;99719.19;5092741;28;20028;-48
2024/01/12 01:07:28;;;;;;;46.45;32.58;;;;;;;5.22;100.00;99708.66;5092737;28;20081;-48
2024/01/12 01:09:54;;;;;;;44.55;28.75;;;;;;;5.28;100.00;99710.69;5092780;28;20028;-48
2024/01/12 01:12:20;;;;;;;43.70;30.27;;;;;;;5.30;100.00;99704.38;5091305;28;20452;-48
2024/01/12 01:14:46;;;;;;;36.90;27.00;;;;;;;5.41;100.00;99708.59;5092825;28;20028;-48
2024/01/12 01:17:12;;;;;;;42.42;29.02;;;;;;;5.35;100.00;99707.41;5092464;28;20051;-48
2024/01/12 01:19:38;;;;;;;39.30;28.20;;;;;;;5.09;100.00;99706.34;5091194;28;20111;-48
2024/01/12 01:22:05;;;;;;;45.70;30.35;;;;;;;4.88;100.00;99714.31;5091148;28;20111;-48
2024/01/12 01:24:31;;;;;;;39.50;29.25;;;;;;;4.88;100.00;99712.53;5108243;28;20017;-48
2024/01/12 01:26:58;;;;;;;42.95;26.55;;;;;;;4.95;100.00;99726.63;5092415;28;20020;-48
2024/01/12 01:29:23;;;;;;;38.65;28.05;;;;;;;4.99;100.00;99720.19;5092365;28;20393;-48
2024/01/12 01:31:49;;;;;;;45.67;29.08;;;;;;;5.01;100.00;99720.06;5092269;28;20016;-48
2024/01/12 01:34:16;;;;;;;38.67;27.77;;;;;;;5.15;100.00;99722.22;5090951;28;20059;-48
2024/01/12 01:36:42;;;;;;;38.72;27.13;;;;;;;4.97;100.00;99729.91;5090834;28;20044;-48
2024/01/12 01:39:08;;;;;;;45.80;33.17;;;;;;;4.67;100.00;99736.09;5090879;28;20024;-48
2024/01/12 01:41:36;;;;;;;43.08;28.50;;;;;;;4.74;100.00;99739.75;5092142;28;20020;-48
2024/01/12 01:44:02;;;;;;;41.17;28.92;;;;;;;4.84;100.00;99749.34;5092159;28;20458;-48
2024/01/12 01:46:28;;;;;;;43.47;29.98;;;;;;;4.90;100.00;99748.81;5092076;28;20103;-48
2024/01/12 01:48:55;;;;;;;46.85;32.47;;;;;;;5.09;100.00;99742.75;5092043;28;20031;-47
2024/01/12 01:51:22;;;;;;;42.17;29.77;;;;;;;5.19;100.00;99748.78;5092335;28;20036;-48
2024/01/12 01:53:50;;;;;;;43.88;31.75;;;;;;;5.05;99.73;99741.41;5090739;28;20097;-48
2024/01/12 01:56:15;;;;;;;41.47;29.52;;;;;;;4.81;100.00;99745.25;5091886;28;20027;-48
2024/01/12 01:58:42;;;;;;;46.72;31.88;;;;;;;4.49;100.00;99743.72;5091983;28;20076;-48
2024/01/12 02:01:10;;;;;;;42.63;31.48;;;;;;;4.35;100.00;99742.34;5091926;28;20050;-48
2024/01/12 02:03:38;;;;;;;45.33;31.65;;;;;;;4.45;100.00;99741.50;5090721;28;20063;-48
2024/01/12 02:06:05;;;;;;;46.03;30.65;;;;;;;4.68;100.00;99740.31;5090529;28;20024;-49
2024/01/12 02:08:31;;;;;;;51.20;34.28;;;;;;;4.59;100.00;99730.75;5091743;28;20020;-48
2024/01/12 02:10:56;;;;;;;49.72;33.50;;;;;;;4.53;100.00;99737.31;5091813;28;20054;-48
2024/01/12 02:13:23;;;;;;;43.40;32.92;;;;;;;4.63;100.00;99732.13;5091825;28;20442;-48
2024/01/12 02:15:49;;;;;;;47.97;33.97;;;;;;;4.83;100.00;99743.34;5091756;28;20055;-48
2024/01/12 02:18:15;;;;;;;45.83;32.40;;;;;;;5.06;100.00;99733.47;5091688;28;20420;-48
2024/01/12 02:20:41;;;;;;;64.60;47.22;;;;;;;5.23;100.00;99737.13;5091768;28;20024;-49
2024/01/12 02:23:07;;;;;;;51.10;34.05;;;;;;;5.22;100.00;99738.09;5091628;28;20024;-48
2024/01/12 02:25:33;;;;;;;49.45;34.03;;;;;;;5.09;100.00;99738.41;5091674;28;20454;-48
2024/01/12 02:27:59;;;;;;;53.65;37.22;;;;;;;4.96;100.00;99730.06;5091659;28;20024;-48
2024/01/12 02:30:25;;;;;;;51.55;37.97;;;;;;;4.96;100.00;99728.25;5091617;28;20553;-48
2024/01/12 02:32:51;;;;;;;49.20;37.42;;;;;;;5.03;100.00;99733.75;5090313;28;20024;-48
2024/01/12 02:35:16;;;;;;;53.50;36.55;;;;;;;5.03;100.00;99736.34;5090249;28;20080;-48
2024/01/12 02:37:42;;;;;;;54.88;37.72;;;;;;;5.00;100.00;99731.41;5091271;28;20391;-48
2024/01/12 02:40:08;;;;;;;51.08;38.42;;;;;;;5.05;100.00;99739.63;5090238;28;20017;-48
2024/01/12 02:42:34;;;;;;;51.90;41.33;;;;;;;5.15;100.00;99731.78;5091477;28;20081;-48
2024/01/12 02:44:59;;;;;;;53.42;41.10;;;;;;;5.22;100.00;99737.28;5091432;28;20061;-48
2024/01/12 02:47:25;;;;;;;56.58;39.90;;;;;;;5.27;100.00;99729.84;5091412;28;20102;-48
2024/01/12 02:49:51;;;;;;;56.90;44.30;;;;;;;5.25;100.00;99737.84;5091410;28;20055;-48
2024/01/12 02:52:16;;;;;;;59.50;44.05;;;;;;;4.76;100.00;99739.63;5090071;28;20025;-48
2024/01/12 02:54:42;;;;;;;64.55;50.30;;;;;;;4.49;100.00;99737.72;5091476;28;20048;-48
2024/01/12 02:57:08;;;;;;;54.17;39.25;;;;;;;4.49;100.00;99738.53;5091244;28;20125;-48
2024/01/12 02:59:34;;;;;;;51.25;35.70;;;;;;;4.56;100.00;99744.00;5091386;28;20715;-48
2024/01/12 03:01:59;;;;;;;65.50;43.03;;;;;;;4.40;100.00;99747.13;5091362;28;20019;-48
2024/01/12 03:04:25;;;;;;;56.15;39.13;;;;;;;4.36;100.00;99741.38;5091323;28;20021;-48
2024/01/12 03:06:51;;;;;;;50.92;36.13;;;;;;;4.56;100.00;99737.00;5090271;28;20512;-48
2024/01/12 03:09:17;;;;;;;56.10;38.45;;;;;;;4.66;100.00;99741.41;5091189;28;20013;-48
2024/01/12 03:11:42;;;;;;;57.05;40.10;;;;;;;4.74;100.00;99738.94;5091228;28;20020;-48
2024/01/12 03:14:08;;;;;;;59.88;41.33;;;;;;;4.80;100.00;99739.22;5091210;28;20102;-48
2024/01/12 03:16:34;;;;;;;53.00;40.95;;;;;;;4.63;100.00;99736.47;5089801;28;20535;-48
2024/01/12 03:19:00;;;;;;;53.63;37.67;;;;;;;4.32;99.80;99733.97;5091801;28;20077;-48
2024/01/12 03:21:25;;;;;;;56.63;41.47;;;;;;;4.45;100.00;99734.56;5093453;28;20402;-48
2024/01/12 03:23:51;;;;;;;53.03;37.15;;;;;;;4.80;100.00;99736.63;5093362;28;20020;-48
2024/01/12 03:26:17;;;;;;;51.15;37.20;;;;;;;5.06;100.00;99735.25;5094707;28;20024;-48
2024/01/12 03:28:43;;;;;;;55.80;39.97;;;;;;;4.96;100.00;99724.84;5094723;28;20052;-48
2024/01/12 03:31:08;;;;;;;54.83;39.72;;;;;;;4.63;99.13;99728.66;5094531;28;20553;-48
2024/01/12 03:33:37;;;;;;;57.40;39.67;;;;;;;4.69;100.00;99728.97;5093267;28;20059;-48
2024/01/12 03:36:06;;;;;;;56.63;38.88;;;;;;;4.90;98.76;99725.41;5094269;28;20048;-48
2024/01/12 03:38:32;;;;;;;56.35;38.13;;;;;;;4.81;95.37;99727.06;5094462;28;20028;-48
2024/01/12 03:40:57;;;;;;;54.08;40.83;;;;;;;4.63;95.60;99728.66;5094440;28;20374;-48
2024/01/12 03:43:23;;;;;;;57.92;38.83;;;;;;;4.54;95.28;99725.13;5094426;28;20039;-48
2024/01/12 03:45:49;;;;;;;51.58;34.67;;;;;;;4.51;95.64;99723.63;5094306;28;20461;-48
2024/01/12 03:48:15;;;;;;;58.50;36.17;;;;;;;4.73;97.81;99729.53;5092959;28;20028;-47
2024/01/12 03:50:41;;;;;;;52.33;36.05;;;;;;;4.99;98.59;99725.41;5094554;28;20073;-48
2024/01/12 03:53:07;;;;;;;56.72;38.20;;;;;;;5.13;98.36;99723.31;5094257;28;20089;-48
2024/01/12 03:55:32;;;;;;;61.97;40.10;;;;;;;5.11;97.70;99723.47;5094109;28;20062;-48
2024/01/12 03:57:58;;;;;;;52.78;37.25;;;;;;;5.06;96.65;99723.06;5092731;28;20032;-48
2024/01/12 04:00:24;;;;;;;59.78;42.05;;;;;;;5.10;99.10;99726.19;5092734;28;20024;-48
2024/01/12 04:02:49;;;;;;;56.65;38.15;;;;;;;5.14;98.82;99730.97;5094022;28;20024;-47
2024/01/12 04:05:15;;;;;;;53.90;37.00;;;;;;;5.03;97.62;99730.31;5092591;28;20028;-48
2024/01/12 04:07:42;;;;;;;57.05;40.92;;;;;;;4.96;96.98;99732.66;5093918;28;20135;-48
2024/01/12 04:10:08;;;;;;;55.13;39.00;;;;;;;4.71;95.15;99728.81;5093863;28;20024;-48
2024/01/12 04:12:34;;;;;;;59.72;41.97;;;;;;;4.68;97.13;99734.31;5092542;28;20031;-48
2024/01/12 04:15:00;;;;;;;53.38;41.85;;;;;;;4.59;95.60;99730.75;5093752;28;20074;-48
2024/01/12 04:17:25;;;;;;;55.40;41.10;;;;;;;4.23;96.22;99733.00;5093695;28;20027;-48
2024/01/12 04:19:51;;;;;;;57.63;42.70;;;;;;;3.86;95.69;99732.75;5093723;28;20028;-48
2024/01/12 04:22:17;;;;;;;66.38;44.47;;;;;;;3.57;94.63;99736.88;5093575;28;20024;-48
2024/01/12 04:24:43;;;;;;;56.08;41.03;;;;;;;3.37;96.54;99735.94;5093591;28;20067;-48
2024/01/12 04:27:08;;;;;;;62.30;43.78;;;;;;;3.36;98.29;99729.13;5093514;28;20077;-48
2024/01/12 04:29:34;;;;;;;59.08;43.42;;;;;;;3.59;100.00;99728.97;5093453;28;20028;-48
2024/01/12 04:32:00;;;;;;;58.25;41.78;;;;;;;3.67;100.00;99726.53;5092180;28;20074;-48
2024/01/12 04:34:26;;;;;;;66.32;44.17;;;;;;;3.59;100.00;99727.19;5092070;28;20032;-48
2024/01/12 04:36:54;;;;;;;73.72;53.17;;;;;;;3.55;100.00;99730.19;5091842;28;20041;-48
2024/01/12 04:39:20;;;;;;;55.63;36.80;;;;;;;3.53;100.00;99738.09;5109006;28;20090;-47
2024/01/12 04:41:46;;;;;;;69.45;50.13;;;;;;;3.20;99.87;99736.53;5093267;28;20486;-48
2024/01/12 04:44:12;;;;;;;59.15;35.80;;;;;;;3.12;100.00;99733.72;5091887;28;20028;-47
2024/01/12 04:46:38;;;;;;;67.88;47.63;;;;;;;2.98;100.00;99735.72;5091820;28;20032;-48
2024/01/12 04:49:03;;;;;;;71.20;46.40;;;;;;;2.99;100.00;99739.94;5093038;28;20024;-48
2024/01/12 04:51:29;;;;;;;61.85;40.67;;;;;;;3.23;100.00;99746.66;5091685;28;20080;-48
2024/01/12 04:53:55;;;;;;;93.20;62.13;;;;;;;3.52;100.00;99730.41;5093302;28;20486;-48
2024/01/12 04:56:21;;;;;;;56.25;40.22;;;;;;;3.86;100.00;99730.16;5092958;28;20027;-48
2024/01/12 04:58:47;;;;;;;67.88;46.47;;;;;;;4.02;100.00;99737.47;5091662;28;20032;-48
2024/01/12 05:01:12;;;;;;;65.88;43.72;;;;;;;4.25;100.00;99732.88;5092915;28;20516;-48
2024/01/12 05:03:40;;;;;;;69.30;49.90;;;;;;;4.54;100.00;99738.94;5092901;28;20021;-48
2024/01/12 05:06:06;;;;;;;64.38;45.00;;;;;;;4.73;100.00;99735.53;5092849;28;20087;-48
2024/01/12 05:08:34;;;;;;;64.57;44.95;;;;;;;4.97;100.00;99731.69;5092860;28;20611;-48
2024/01/12 05:11:00;;;;;;;65.75;47.83;;;;;;;5.14;100.00;99733.59;5092675;28;20020;-48
2024/01/12 05:13:26;;;;;;;55.65;40.13;;;;;;;5.24;100.00;99737.97;5091360;28;20036;-48
2024/01/12 05:15:51;;;;;;;56.90;38.97;;;;;;;5.25;100.00;99737.00;5092626;28;20016;-48
2024/01/12 05:18:17;;;;;;;66.57;41.03;;;;;;;5.14;100.00;99737.97;5091311;28;20028;-48
2024/01/12 05:20:43;;;;;;;60.83;41.92;;;;;;;5.03;100.00;99738.09;5092454;28;20016;-48
2024/01/12 05:23:09;;;;;;;58.83;39.63;;;;;;;5.07;100.00;99742.91;5091168;28;20445;-48
2024/01/12 05:25:35;;;;;;;59.20;40.95;;;;;;;5.20;100.00;99732.22;5092377;28;20028;-48
2024/01/12 05:28:01;;;;;;;57.88;41.17;;;;;;;5.32;100.00;99738.09;5091139;28;20028;-48
2024/01/12 05:30:26;;;;;;;61.40;40.38;;;;;;;5.34;99.62;99742.19;5091030;28;20077;-48
2024/01/12 05:32:52;;;;;;;61.08;39.40;;;;;;;5.34;98.60;99738.75;5092358;28;20516;-48
2024/01/12 05:35:18;;;;;;;64.07;47.65;;;;;;;5.35;100.00;99746.44;5092233;28;20103;-48
2024/01/12 05:37:44;;;;;;;65.88;45.80;;;;;;;5.38;98.77;99748.75;5090730;28;20444;-48
2024/01/12 05:40:10;;;;;;;68.05;51.03;;;;;;;5.49;98.50;99746.94;5092208;28;20445;-48
2024/01/12 05:42:36;;;;;;;66.95;47.10;;;;;;;5.60;96.93;99752.78;5090554;28;20024;-48
2024/01/12 05:45:01;;;;;;;62.78;45.67;;;;;;;5.63;97.30;99753.47;5090817;28;20088;-48
2024/01/12 05:47:27;;;;;;;63.72;40.70;;;;;;;5.65;97.01;99756.75;5092140;28;20031;-48
2024/01/12 05:49:53;;;;;;;58.92;38.00;;;;;;;5.65;96.27;99756.75;5092012;28;20024;-48
2024/01/12 05:52:19;;;;;;;58.30;40.42;;;;;;;5.60;96.74;99757.19;5091976;28;20065;-48
2024/01/12 05:54:44;;;;;;;63.95;44.20;;;;;;;5.57;95.01;99758.31;5092011;28;20402;-48
2024/01/12 05:57:10;;;;;;;63.30;43.80;;;;;;;5.56;92.01;99750.63;5090565;28;20024;-48
2024/01/12 05:59:36;;;;;;;62.42;40.97;;;;;;;5.54;92.22;99752.56;5090662;28;20031;-47
2024/01/12 06:02:03;;;;;;;54.67;38.10;;;;;;;5.51;89.45;99755.44;5091912;28;20028;-48
2024/01/12 06:04:29;;;;;;;62.90;40.15;;;;;;;5.53;90.96;99762.16;5091865;28;20409;-48
2024/01/12 06:06:55;;;;;;;63.70;40.15;;;;;;;5.54;91.33;99768.19;5091892;28;20055;-48
2024/01/12 06:09:20;;;;;;;59.47;39.08;;;;;;;5.51;90.96;99768.44;5091839;28;20025;-48
2024/01/12 06:11:46;;;;;;;64.07;40.28;;;;;;;5.54;89.81;99766.38;5091821;28;20708;-48
2024/01/12 06:14:16;;;;;;;63.85;40.67;;;;;;;5.55;89.88;99780.22;5090499;28;20035;-48
2024/01/12 06:16:41;;;;;;;67.85;39.95;;;;;;;5.47;88.67;99778.31;5091677;28;20120;-48
2024/01/12 06:19:07;;;;;;;65.10;40.22;;;;;;;5.38;89.98;99777.38;5091721;28;20099;-48
2024/01/12 06:21:33;;;;;;;65.10;41.95;;;;;;;5.28;89.01;99776.56;5091742;28;20034;-48
2024/01/12 06:23:59;;;;;;;69.45;44.03;;;;;;;5.17;89.77;99772.34;5090415;28;20039;-48
2024/01/12 06:26:24;;;;;;;66.68;39.38;;;;;;;5.10;89.50;99778.25;5090278;28;20035;-48
2024/01/12 06:28:50;;;;;;;65.97;43.80;;;;;;;5.10;90.74;99781.66;5091703;28;20020;-48
2024/01/12 06:31:16;;;;;;;66.80;41.15;;;;;;;5.16;92.49;99773.28;5091562;28;20016;-48
2024/01/12 06:33:41;;;;;;;64.63;43.08;;;;;;;5.29;92.17;99770.41;5091609;28;20055;-46
2024/01/12 06:36:07;;;;;;;61.35;39.58;;;;;;;5.21;91.17;99778.06;5091364;28;20044;-45
2024/01/12 06:38:33;;;;;;;55.50;37.05;;;;;;;5.16;90.66;99772.47;5090222;28;20494;-45
2024/01/12 06:40:59;;;;;;;54.25;36.78;;;;;;;5.10;90.20;99773.84;5091591;28;20094;-46
2024/01/12 06:43:24;;;;;;;64.88;43.00;;;;;;;5.02;88.71;99778.09;5090194;28;20394;-46
2024/01/12 06:45:50;;;;;;;59.05;38.53;;;;;;;5.03;89.98;99784.94;5090115;28;20024;-45
2024/01/12 06:48:16;;;;;;;59.63;38.53;;;;;;;5.07;89.87;99775.91;5090160;28;20034;-45
2024/01/12 06:50:42;;;;;;;59.63;38.72;;;;;;;5.12;89.79;99776.31;5090118;28;20055;-45
2024/01/12 06:53:13;;;;;;;62.90;41.72;;;;;;;5.19;89.96;99777.41;5090102;28;20013;-46
2024/01/12 06:55:39;;;;;;;69.38;43.92;;;;;;;5.26;88.14;99780.28;5094746;28;20115;-48
2024/01/12 06:58:05;;;;;;;64.20;39.10;;;;;;;5.36;90.12;99776.69;5095153;28;20111;-48
2024/01/12 07:00:31;;;;;;;62.33;42.22;;;;;;;5.33;87.99;99778.75;5095472;28;20074;-48
2024/01/12 07:02:57;;;;;;;65.10;41.33;;;;;;;5.30;88.20;99786.84;5095245;28;20028;-48
2024/01/12 07:05:25;;;;;;;57.83;38.03;;;;;;;5.45;89.53;99788.03;5095378;28;20024;-48
2024/01/12 07:07:50;;;;;;;64.55;41.15;;;;;;;5.22;88.14;99778.91;5095334;28;20066;-48
2024/01/12 07:10:16;;;;;;;55.50;36.28;;;;;;;5.19;89.31;99780.84;5094969;28;20421;-48
2024/01/12 07:12:42;;;;;;;65.00;43.00;;;;;;;5.24;88.15;99783.00;5093725;28;20494;-48
2024/01/12 07:15:08;;;;;;;57.47;38.10;;;;;;;5.18;87.18;99781.78;5093588;28;20056;-48
2024/01/12 07:17:34;;;;;;;60.78;38.63;;;;;;;5.19;88.40;99780.00;5093538;28;20028;-45
2024/01/12 07:20:01;;;;;;;57.10;36.95;;;;;;;5.25;88.12;99782.06;5094900;28;20068;-46
2024/01/12 07:22:26;;;;;;;53.47;37.45;;;;;;;5.27;87.58;99782.75;5094733;28;20039;-46
2024/01/12 07:24:52;;;;;;;54.35;37.42;;;;;;;5.30;86.20;99781.66;5094763;28;20028;-46
2024/01/12 07:27:18;;;;;;;57.60;37.53;;;;;;;5.37;88.23;99786.16;5093381;28;20028;-45
2024/01/12 07:29:44;;;;;;;58.25;35.97;;;;;;;5.35;84.78;99779.44;5093365;28;20406;-45
2024/01/12 07:32:10;;;;;;;56.90;37.05;;;;;;;5.22;87.99;99784.13;5094542;28;20384;-48
2024/01/12 07:34:35;;;;;;;58.60;39.60;;;;;;;5.20;88.43;99776.44;5093344;28;20024;-50
2024/01/12 07:37:02;;;;;;;59.67;40.22;;;;;;;5.19;87.74;99777.41;5092872;28;20036;-47
2024/01/12 07:39:28;;;;;;;58.83;37.63;;;;;;;5.23;88.93;99777.94;5093119;28;20439;-48
2024/01/12 07:41:55;;;;;;;59.78;38.60;;;;;;;5.25;87.71;99779.47;5094469;28;20031;-48
2024/01/12 07:44:21;;;;;;;62.22;41.35;;;;;;;5.20;86.35;99779.06;5093109;28;20021;-48
2024/01/12 07:46:46;;;;;;;62.10;41.92;;;;;;;5.24;86.88;99779.59;5093057;28;20455;-48
2024/01/12 07:49:12;;;;;;;54.90;36.63;;;;;;;5.23;85.63;99777.94;5093008;28;20371;-48
2024/01/12 07:51:38;;;;;;;73.28;55.50;;;;;;;5.25;87.64;99781.22;5094230;28;20016;-48
2024/01/12 07:54:04;;;;;;;62.53;41.00;;;;;;;5.24;87.47;99783.00;5094228;28;20052;-48
2024/01/12 07:56:29;;;;;;;63.00;41.58;;;;;;;5.27;87.99;99787.13;5094103;28;20020;-47
2024/01/12 07:58:57;;;;;;;57.47;39.15;;;;;;;5.29;88.12;99782.59;5094170;28;20027;-46
2024/01/12 08:01:23;;;;;;;61.58;39.42;;;;;;;5.32;87.82;99785.75;5094008;28;20046;-45
2024/01/12 08:03:49;;;;;;;61.05;37.78;;;;;;;5.37;87.09;99778.34;5094012;28;20024;-45
2024/01/12 08:06:15;;;;;;;62.03;36.47;;;;;;;5.34;85.30;99783.81;5093710;28;20090;-46
2024/01/12 08:08:41;;;;;;;57.13;38.10;;;;;;;5.24;85.16;99793.44;5093912;28;20031;-45
2024/01/12 08:11:07;;;;;;;60.28;39.63;;;;;;;5.19;85.20;99790.41;5093929;28;20371;-45
2024/01/12 08:13:33;;;;;;;60.42;41.60;;;;;;;5.16;86.02;99785.50;5093821;28;20020;-45
2024/01/12 08:15:58;;;;;;;61.50;40.72;;;;;;;5.23;86.79;99791.78;5093792;28;20016;-45
2024/01/12 08:18:24;;;;;;;64.45;38.95;;;;;;;5.12;84.04;99797.13;5093686;28;20074;-48
2024/01/12 08:20:50;;;;;;;60.17;39.92;;;;;;;4.97;83.79;99791.50;5093659;28;20039;-48
2024/01/12 08:23:16;;;;;;;66.50;45.50;;;;;;;4.98;86.71;99791.38;5093668;28;20019;-48
2024/01/12 08:25:42;;;;;;;63.00;41.28;;;;;;;5.15;87.52;99789.88;5093622;28;20020;-48
2024/01/12 08:28:07;;;;;;;67.22;41.10;;;;;;;5.28;87.62;99802.59;5092240;28;20417;-48
2024/01/12 08:30:36;;;;;;;58.55;36.30;;;;;;;5.27;83.69;99802.72;5092118;28;20021;-48
2024/01/12 08:33:02;;;;;;;56.35;36.58;;;;;;;5.11;83.31;99803.28;5093491;28;20023;-48
2024/01/12 08:35:28;;;;;;;56.00;37.58;;;;;;;5.11;84.24;99806.72;5091873;28;20397;-52
2024/01/12 08:37:54;;;;;;;57.85;36.90;;;;;;;5.05;83.24;99809.03;5087800;28;20059;-45
2024/01/12 08:40:20;;;;;;;56.00;36.42;;;;;;;5.01;84.36;99811.13;5093269;28;20056;-45
2024/01/12 08:42:45;;;;;;;64.57;41.20;;;;;;;5.08;84.58;99816.59;5093314;28;20548;-46
2024/01/12 08:45:12;;;;;;;72.22;43.65;;;;;;;5.08;82.20;99822.59;5093206;28;20047;-45
2024/01/12 08:47:38;;;;;;;65.03;41.60;;;;;;;5.14;81.77;99824.66;5093453;28;20027;-45
2024/01/12 08:50:04;;;;;;;62.42;40.90;;;;;;;5.23;83.13;99820.41;5091780;28;20028;-45
2024/01/12 08:52:30;;;;;;;60.88;38.47;;;;;;;5.27;85.30;99829.59;5091769;28;20398;-45
2024/01/12 08:54:55;;;;;;;53.90;36.20;;;;;;;5.37;87.29;99826.97;5093263;28;20027;-46
2024/01/12 08:57:21;;;;;;;56.53;39.22;;;;;;;5.53;87.10;99829.84;5093495;28;20462;-46
2024/01/12 08:59:47;;;;;;;60.03;39.75;;;;;;;5.55;85.43;99824.47;5092978;28;20035;-48
2024/01/12 09:02:13;;;;;;;57.83;40.95;;;;;;;5.42;83.86;99822.19;5092889;28;20024;-48
2024/01/12 09:04:40;;;;;;;50.72;33.78;;;;;;;5.22;83.76;99820.56;5092814;28;20390;-48
2024/01/12 09:07:06;;;;;;;52.70;33.90;;;;;;;5.15;82.71;99817.66;5092785;28;20028;-48
2024/01/12 09:09:32;;;;;;;52.05;36.05;;;;;;;4.88;83.50;99833.97;5091469;28;20024;-48
2024/01/12 09:11:57;;;;;;;56.08;37.10;;;;;;;4.94;84.14;99829.03;5091638;28;20036;-48
2024/01/12 09:14:24;;;;;;;54.47;34.92;;;;;;;5.13;84.72;99827.38;5092689;28;20015;-45
2024/01/12 09:16:49;;;;;;;53.40;35.90;;;;;;;5.28;85.75;99833.84;5091881;28;20024;-46
2024/01/12 09:19:16;;;;;;;54.42;37.53;;;;;;;5.42;84.50;99842.19;5092621;28;20024;-46
2024/01/12 09:21:42;;;;;;;63.38;37.42;;;;;;;5.52;85.30;99843.81;5092519;28;20024;-46
2024/01/12 09:24:07;;;;;;;54.05;35.10;;;;;;;5.52;84.14;99843.81;5092529;28;20027;-46
2024/01/12 09:26:33;;;;;;;58.63;35.10;;;;;;;5.47;82.37;99843.41;5092434;28;20481;-45
2024/01/12 09:28:59;;;;;;;50.80;34.45;;;;;;;5.52;81.34;99843.00;5091178;28;20024;-45
2024/01/12 09:31:25;;;;;;;53.20;36.85;;;;;;;5.63;82.81;99850.63;5091002;28;20485;-46
2024/01/12 09:33:51;;;;;;;54.25;36.00;;;;;;;5.65;84.36;99845.31;5092357;28;20026;-48
2024/01/12 09:36:17;;;;;;;54.25;34.72;;;;;;;5.72;83.96;99849.81;5091963;28;20027;-48
2024/01/12 09:38:43;;;;;;;84.57;63.67;;;;;;;5.53;82.50;99853.28;5092329;28;20405;-48
2024/01/12 09:41:12;;;;;;;55.60;37.10;;;;;;;5.57;83.34;99859.00;5092212;28;20103;-48
2024/01/12 09:43:40;;;;;;;60.38;38.65;;;;;;;5.64;84.59;99857.50;5092226;28;20020;-48
2024/01/12 09:46:08;;;;;;;53.55;35.47;;;;;;;5.52;83.28;99854.22;5090840;28;20028;-48
2024/01/12 09:48:34;;;;;;;66.70;41.97;;;;;;;5.55;83.39;99855.72;5092125;28;20020;-48
2024/01/12 09:51:01;;;;;;;50.28;33.42;;;;;;;5.65;82.24;99856.53;5092189;28;20021;-48
2024/01/12 09:53:27;;;;;;;49.42;34.08;;;;;;;5.70;80.06;99850.94;5092100;28;20100;-48
2024/01/12 09:55:53;;;;;;;50.25;34.40;;;;;;;5.82;78.32;99849.81;5092033;28;20052;-46
2024/01/12 09:58:21;;;;;;;55.22;33.60;;;;;;;5.85;78.33;99853.91;5092007;28;20441;-46
2024/01/12 10:00:50;;;;;;;54.45;34.03;;;;;;;6.01;78.50;99848.94;5090670;28;20490;-46
2024/01/12 10:03:17;;;;;;;61.65;42.15;;;;;;;6.15;78.83;99845.06;5090677;28;20028;-46
2024/01/12 10:05:44;;;;;;;63.17;47.22;;;;;;;6.22;75.28;99851.34;5091858;28;20081;-46
2024/01/12 10:08:10;;;;;;;95.25;74.43;;;;;;;6.18;77.98;99855.22;5091935;28;20081;-48
2024/01/12 10:10:35;;;;;;;68.75;50.97;;;;;;;6.17;77.44;99864.78;5091927;28;20465;-48
2024/01/12 10:13:02;;;;;;;55.42;38.97;;;;;;;6.13;79.11;99860.03;5091854;28;20417;-48
2024/01/12 10:15:29;;;;;;;57.90;41.03;;;;;;;5.97;78.63;99863.22;5073673;28;20024;-48
2024/01/12 10:17:56;;;;;;;65.35;36.88;;;;;;;5.76;78.10;99861.59;5091671;28;20035;-48
2024/01/12 10:20:22;;;;;;;57.08;38.28;;;;;;;5.80;80.24;99857.75;5091792;28;20099;-46
2024/01/12 10:22:58;;;;;;;55.00;39.00;;;;;;;6.01;82.45;99861.97;5091806;28;20024;-46
2024/01/12 10:25:24;;;;;;;55.40;35.05;;;;;;;6.04;80.36;99864.31;5090478;28;20028;-48
2024/01/12 10:27:59;;;;;;;51.33;33.72;;;;;;;6.03;78.26;99862.66;5092248;28;20032;-48
2024/01/12 10:30:26;;;;;;;57.50;35.38;;;;;;;6.17;79.29;99864.78;5095841;28;20375;-48
2024/01/12 10:32:53;;;;;;;53.53;33.92;;;;;;;5.97;77.35;99848.41;5095700;28;20119;-45
2024/01/12 10:35:20;;;;;;;52.30;32.80;;;;;;;5.98;79.41;99860.47;5095753;28;20024;-45
2024/01/12 10:37:47;;;;;;;49.17;35.95;;;;;;;6.13;78.94;99852.19;5095345;28;20123;-46
2024/01/12 10:40:17;;;;;;;49.92;35.47;;;;;;;6.29;79.13;99856.81;5095866;28;20030;-46
2024/01/12 10:42:49;;;;;;;48.15;36.85;;;;;;;6.13;79.05;99852.19;5094319;28;20027;-46
2024/01/12 10:45:21;;;;;;;56.60;40.83;;;;;;;6.00;77.91;99849.94;5095809;28;20135;-46
2024/01/12 10:47:55;;;;;;;57.58;35.55;;;;;;;5.85;78.14;99844.28;5095570;28;20024;-46
2024/01/12 10:50:24;;;;;;;53.90;37.50;;;;;;;5.95;78.23;99839.09;5095454;28;20038;-46
2024/01/12 10:53:18;;;;;;;50.20;33.97;;;;;;;6.08;77.69;99841.41;5095335;28;20035;-46
2024/01/12 10:55:53;;;;;;;57.80;38.30;;;;;;;5.94;76.23;99840.84;5089381;28;20040;-46
2024/01/12 10:58:19;;;;;;;62.83;39.42;;;;;;;5.66;77.84;99836.53;5095543;28;20371;-48
2024/01/12 11:00:46;;;;;;;50.30;36.33;;;;;;;5.56;77.69;99833.94;5093960;28;20569;-48
2024/01/12 11:03:15;;;;;;;54.47;38.00;;;;;;;5.67;77.34;99838.16;5095262;28;20048;-48
2024/01/12 11:05:43;;;;;;;58.85;38.00;;;;;;;5.82;75.87;99835.97;5093829;28;20394;-48
2024/01/12 11:08:11;;;;;;;55.03;36.80;;;;;;;6.03;76.04;99835.78;5095138;28;20053;-48
2024/01/12 11:10:45;;;;;;;55.33;37.28;;;;;;;6.35;78.36;99835.38;5094999;28;20027;-48
2024/01/12 11:13:14;;;;;;;53.22;36.38;;;;;;;6.53;78.81;99823.19;5095135;28;20028;-48
2024/01/12 11:15:41;;;;;;;51.47;35.88;;;;;;;6.66;76.98;99822.03;5093720;28;20017;-45
2024/01/12 11:18:10;;;;;;;52.25;38.10;;;;;;;6.73;74.18;99812.66;5093700;28;20031;-46